Time;durP1;ratioP1;P1;durP2;ratioP2;P2;SDS_P1;SDS_P2;PMS_P1;PMS_P2;Temp;Humidity;BMP_temperature;BMP_pressure;BME280_temperature;BME280_humidity;BME280_pressure;Samples;Min_cycle;Max_cycle;Signal;HPM_P1;HPM_P2
2022/06/15 00:01:49;;;;;;;2.78;1.40;;;;;;;13.59;67.54;99200.84;4485452;31;20123;-72
2022/06/15 00:04:16;;;;;;;3.35;1.30;;;;;;;13.61;66.88;99204.19;4485223;31;20465;-72
2022/06/15 00:06:44;;;;;;;5.45;1.50;;;;;;;13.59;66.86;99205.28;4485419;31;20505;-72
2022/06/15 00:09:11;;;;;;;3.17;1.80;;;;;;;13.56;66.82;99195.06;4485228;31;20096;-72
2022/06/15 00:11:42;;;;;;;1.30;1.12;;;;;;;13.50;66.98;99201.72;4485329;31;20100;-72
2022/06/15 00:14:16;;;;;;;1.62;1.30;;;;;;;13.48;66.82;99203.69;4485161;31;20146;-72
2022/06/15 00:16:43;;;;;;;2.78;1.23;;;;;;;13.49;66.61;99200.09;4485639;31;20096;-72
2022/06/15 00:19:11;;;;;;;2.75;1.30;;;;;;;13.51;66.54;99195.50;4484830;31;20436;-72
2022/06/15 00:21:38;;;;;;;1.70;1.10;;;;;;;13.53;66.38;99200.63;4485205;31;20084;-72
2022/06/15 00:24:06;;;;;;;2.80;1.33;;;;;;;13.50;66.35;99196.47;4485275;32;20469;-72
2022/06/15 00:26:33;;;;;;;2.55;1.20;;;;;;;13.47;66.58;99202.00;4485321;32;20144;-72
2022/06/15 00:29:00;;;;;;;1.62;1.27;;;;;;;13.39;66.71;99194.84;4485223;31;20123;-72
2022/06/15 00:31:28;;;;;;;3.33;1.67;;;;;;;13.42;66.32;99199.00;4485049;32;20573;-72
2022/06/15 00:33:56;;;;;;;2.35;1.30;;;;;;;13.46;66.25;99195.94;4485405;31;20119;-72
2022/06/15 00:36:23;;;;;;;2.83;1.20;;;;;;;13.43;66.19;99195.38;4485160;31;20122;-72
2022/06/15 00:38:53;;;;;;;3.35;1.10;;;;;;;13.46;65.92;99195.13;4485290;31;20476;-72
2022/06/15 00:41:35;;;;;;;2.25;1.23;;;;;;;13.46;65.79;99197.75;4485126;31;20160;-72
2022/06/15 00:44:23;;;;;;;3.33;1.35;;;;;;;13.47;65.81;99196.75;4485510;31;20111;-72
2022/06/15 00:46:54;;;;;;;1.90;1.48;;;;;;;13.48;65.69;99187.88;4420299;32;20120;-72
2022/06/15 00:49:37;;;;;;;2.60;1.40;;;;;;;13.47;65.28;99189.69;4408001;32;20637;-71
2022/06/15 00:52:10;;;;;;;3.80;1.35;;;;;;;13.57;64.60;99189.66;4407857;32;20097;-72
2022/06/15 00:54:38;;;;;;;2.75;1.58;;;;;;;13.56;64.64;99187.97;4408014;32;20156;-72
2022/06/15 00:57:05;;;;;;;1.62;1.12;;;;;;;13.59;64.30;99184.22;4420493;32;20101;-72
2022/06/15 00:59:53;;;;;;;2.33;1.45;;;;;;;13.66;63.96;99190.56;4408118;32;20136;-72
2022/06/15 01:02:21;;;;;;;4.07;1.48;;;;;;;13.61;63.97;99185.75;4420562;32;20144;-72
2022/06/15 01:05:00;;;;;;;1.58;1.25;;;;;;;13.62;63.96;99189.22;4420468;32;20190;-72
2022/06/15 01:07:56;;;;;;;2.95;1.17;;;;;;;13.63;63.95;99186.44;4420497;32;20463;-72
2022/06/15 01:10:45;;;;;;;1.48;1.15;;;;;;;13.63;63.89;99185.59;4407632;32;20384;-72
2022/06/15 01:13:18;;;;;;;2.20;1.15;;;;;;;13.61;63.78;99192.81;4420440;32;20073;-72
2022/06/15 01:16:06;;;;;;;3.28;1.40;;;;;;;13.58;64.18;99187.84;4420161;32;20124;-72
2022/06/15 01:18:48;;;;;;;3.42;1.52;;;;;;;13.50;64.43;99193.81;4420181;32;20558;-72
2022/06/15 01:21:45;;;;;;;1.70;1.42;;;;;;;13.39;65.17;99200.09;4420360;32;20125;-72
2022/06/15 01:24:36;;;;;;;7.18;1.17;;;;;;;13.22;66.98;99204.28;4457152;32;20101;-72
2022/06/15 01:27:33;;;;;;;1.73;1.25;;;;;;;13.16;67.47;99210.13;4470733;32;20120;-72
2022/06/15 01:30:28;;;;;;;2.20;1.50;;;;;;;12.99;69.82;99218.75;4484767;31;20112;-72
2022/06/15 01:33:18;;;;;;;3.70;1.52;;;;;;;12.78;71.56;99217.94;4484663;31;20152;-72
2022/06/15 01:35:59;;;;;;;3.05;1.70;;;;;;;12.63;72.51;99218.50;4484807;31;20497;-72
2022/06/15 01:38:42;;;;;;;2.40;1.52;;;;;;;12.66;71.95;99224.34;4484464;31;20080;-71
2022/06/15 01:41:36;;;;;;;4.97;1.50;;;;;;;12.65;71.72;99213.97;4484411;31;20121;-72
2022/06/15 01:44:13;;;;;;;1.58;1.48;;;;;;;12.62;71.58;99216.87;4482943;32;20152;-71
2022/06/15 01:46:43;;;;;;;4.22;1.60;;;;;;;12.59;71.61;99218.78;4484485;31;20417;-71
2022/06/15 01:49:17;;;;;;;2.03;1.40;;;;;;;12.59;71.91;99220.59;4484783;31;20089;-71
2022/06/15 01:51:46;;;;;;;4.95;1.50;;;;;;;12.59;71.49;99213.53;4482974;32;20096;-71
2022/06/15 01:54:20;;;;;;;5.28;1.50;;;;;;;12.62;70.52;99217.69;4484831;32;20100;-72
2022/06/15 01:56:48;;;;;;;2.00;1.30;;;;;;;12.62;70.74;99220.31;4483413;32;20081;-72
2022/06/15 01:59:21;;;;;;;4.97;1.52;;;;;;;12.63;70.53;99213.25;4483474;32;20466;-72
2022/06/15 02:02:06;;;;;;;4.22;1.60;;;;;;;12.64;70.56;99220.16;4483281;32;20092;-72
2022/06/15 02:05:22;;;;;;;1.60;1.48;;;;;;;12.65;70.46;99217.41;4484262;31;20084;-72
2022/06/15 02:07:54;;;;;;;;;;;;;;;12.58;70.56;99219.78;4450882;32;20096;-72
2022/06/15 02:10:46;;;;;;;4.45;1.40;;;;;;;12.50;70.78;99216.16;4450676;32;20388;-72
2022/06/15 02:13:25;;;;;;;1.90;1.48;;;;;;;12.48;70.08;99216.31;4450300;32;20116;-72
2022/06/15 02:15:56;;;;;;;3.28;1.50;;;;;;;12.45;70.52;99213.12;4437717;32;20156;-72
2022/06/15 02:18:24;;;;;;;2.12;1.40;;;;;;;12.51;68.95;99208.16;4437545;32;20085;-71
2022/06/15 02:21:01;;;;;;;1.83;1.30;;;;;;;12.54;68.73;99215.75;4437725;32;20101;-72
2022/06/15 02:23:31;;;;;;;2.05;1.33;;;;;;;12.60;68.67;99217.00;4437645;32;20150;-72
2022/06/15 02:25:59;;;;;;;1.92;1.40;;;;;;;12.70;68.03;99209.94;4450166;32;20105;-71
2022/06/15 02:28:31;;;;;;;3.62;1.50;;;;;;;12.71;67.89;99214.22;4437399;32;20672;-72
2022/06/15 02:30:59;;;;;;;3.78;1.50;;;;;;;12.64;68.16;99217.53;4434954;32;20109;-72
2022/06/15 02:33:29;;;;;;;1.75;1.55;;;;;;;12.56;68.67;99215.63;4434673;32;20181;-71
2022/06/15 02:35:58;;;;;;;4.15;1.77;;;;;;;12.49;68.93;99209.25;4434736;32;20093;-72
2022/06/15 02:38:28;;;;;;;1.80;1.30;;;;;;;12.41;69.13;99208.16;4434651;32;20094;-72
2022/06/15 02:40:55;;;;;;;1.20;1.00;;;;;;;12.37;69.35;99212.03;4434825;32;20109;-71
2022/06/15 02:43:26;;;;;;;4.47;1.25;;;;;;;12.35;69.00;99206.06;4446433;32;20163;-71
2022/06/15 02:45:55;;;;;;;2.45;1.40;;;;;;;12.39;68.60;99206.63;4482277;32;20085;-72
2022/06/15 02:48:23;;;;;;;2.12;1.25;;;;;;;12.48;67.57;99208.44;4482625;32;20108;-71
2022/06/15 02:50:55;;;;;;;1.58;1.42;;;;;;;12.52;67.83;99209.81;4482380;32;20097;-71
2022/06/15 02:53:26;;;;;;;1.75;1.45;;;;;;;12.46;68.37;99214.78;4482109;32;20096;-71
2022/06/15 02:55:55;;;;;;;3.85;1.48;;;;;;;12.36;69.04;99212.16;4485824;31;20102;-72
2022/06/15 02:58:27;;;;;;;1.75;1.35;;;;;;;12.37;68.86;99213.81;4484702;32;20111;-71
2022/06/15 03:00:56;;;;;;;3.33;1.62;;;;;;;12.42;68.60;99222.13;4486235;31;20115;-71
2022/06/15 03:03:25;;;;;;;1.50;1.40;;;;;;;12.38;68.71;99216.31;4486007;31;20100;-71
2022/06/15 03:05:54;;;;;;;3.42;1.25;;;;;;;12.36;69.01;99218.22;4486328;31;20089;-71
2022/06/15 03:08:22;;;;;;;1.62;1.35;;;;;;;12.47;68.43;99219.91;4485798;31;20081;-71
2022/06/15 03:10:52;;;;;;;9.73;1.65;;;;;;;12.55;68.16;99224.47;4486012;32;20088;-71
2022/06/15 03:13:22;;;;;;;2.92;1.30;;;;;;;12.61;68.02;99221.28;4485927;31;20118;-71
2022/06/15 03:15:49;;;;;;;3.08;1.40;;;;;;;12.67;67.93;99225.16;4485547;31;20102;-71
2022/06/15 03:18:17;;;;;;;2.00;1.50;;;;;;;12.75;67.47;99225.31;4485962;31;20446;-71
2022/06/15 03:20:46;;;;;;;2.67;1.30;;;;;;;12.98;66.55;99223.19;4485967;31;20158;-72
2022/06/15 03:23:13;;;;;;;2.80;1.40;;;;;;;13.26;65.58;99232.00;4485895;31;20774;-72
2022/06/15 03:25:41;;;;;;;1.70;1.27;;;;;;;13.47;64.79;99231.81;4485761;31;20119;-72
2022/06/15 03:28:09;;;;;;;2.08;1.33;;;;;;;13.63;64.68;99233.81;4485954;31;20104;-72
2022/06/15 03:30:38;;;;;;;1.30;1.10;;;;;;;13.55;64.83;99233.72;4486040;31;20154;-71
2022/06/15 03:33:06;;;;;;;2.03;1.42;;;;;;;13.74;63.68;99226.69;4485781;31;20100;-72
2022/06/15 03:35:36;;;;;;;1.52;1.20;;;;;;;13.91;62.82;99228.53;4485857;31;20096;-71
2022/06/15 03:38:08;;;;;;;1.30;1.12;;;;;;;14.01;62.66;99226.69;4485582;32;20099;-71
2022/06/15 03:40:40;;;;;;;1.65;1.35;;;;;;;14.02;63.08;99222.25;4485918;31;20159;-72
2022/06/15 03:43:10;;;;;;;;;;;;;;;13.84;64.01;99224.84;4486261;31;20092;-72
2022/06/15 03:45:38;;;;;;;1.40;1.17;;;;;;;13.80;64.34;99231.37;4485708;31;19994;-72
2022/06/15 03:48:06;;;;;;;3.45;1.85;;;;;;;13.84;64.35;99224.84;4485451;31;20189;-72
2022/06/15 03:50:35;;;;;;;3.22;1.30;;;;;;;13.88;64.18;99226.19;4485726;31;20152;-71
2022/06/15 03:53:04;;;;;;;2.72;1.37;;;;;;;13.96;64.11;99222.81;4485646;31;20096;-72
2022/06/15 03:55:32;;;;;;;1.50;1.40;;;;;;;14.19;63.16;99229.34;4485762;31;20149;-72
2022/06/15 03:58:04;;;;;;;2.67;1.40;;;;;;;14.34;63.74;99231.47;4485771;31;20426;-72
2022/06/15 04:00:32;;;;;;;3.80;1.40;;;;;;;14.42;63.79;99231.53;4485487;31;20653;-72
2022/06/15 04:03:04;;;;;;;1.25;1.08;;;;;;;14.52;64.81;99228.84;4485730;31;20451;-72
2022/06/15 04:05:35;;;;;;;1.73;1.12;;;;;;;14.59;63.04;99232.53;4485236;31;20110;-72
2022/06/15 04:10:50;;;;;;;2.33;1.42;;;;;;;15.00;62.90;99232.06;4485248;31;20159;-72
2022/06/15 04:13:21;;;;;;;2.22;1.37;;;;;;;14.99;61.94;99233.88;4485421;31;20559;-72
2022/06/15 04:15:48;;;;;;;3.90;1.35;;;;;;;15.12;61.83;99230.81;4485417;31;20107;-72
2022/06/15 04:18:16;;;;;;;3.45;1.35;;;;;;;15.21;61.58;99235.16;4488232;31;20478;-73
2022/06/15 04:20:44;;;;;;;1.75;1.10;;;;;;;15.36;62.91;99232.78;4493358;31;20126;-72
2022/06/15 04:23:14;;;;;;;1.80;1.30;;;;;;;15.55;62.93;99230.91;4491692;31;20163;-73
2022/06/15 04:26:01;;;;;;;1.73;1.17;;;;;;;15.77;64.33;99235.62;4492933;31;20115;-72
2022/06/15 04:28:31;;;;;;;3.70;1.30;;;;;;;16.11;63.64;99228.66;4491943;31;20092;-73
2022/06/15 04:30:59;;;;;;;2.08;1.27;;;;;;;16.33;59.79;99237.78;4490886;31;20492;-73
2022/06/15 04:33:28;;;;;;;1.50;1.23;;;;;;;16.56;60.01;99239.81;4491573;31;20103;-72
2022/06/15 04:35:56;;;;;;;2.50;1.23;;;;;;;16.82;59.32;99234.34;4490377;31;20096;-72
2022/06/15 04:38:24;;;;;;;3.20;1.27;;;;;;;16.98;58.57;99234.38;4484066;31;20084;-73
2022/06/15 04:40:52;;;;;;;4.20;1.40;;;;;;;17.13;57.68;99234.50;4493270;31;20432;-73
2022/06/15 04:43:19;;;;;;;3.45;1.30;;;;;;;17.25;57.42;99239.47;4491773;31;20525;-72
2022/06/15 04:45:47;;;;;;;3.60;1.60;;;;;;;17.42;58.13;99235.78;4491763;31;20374;-72
2022/06/15 04:48:16;;;;;;;5.22;1.65;;;;;;;17.61;57.52;99244.31;4490502;31;20226;-74
2022/06/15 04:50:44;;;;;;;13.52;2.20;;;;;;;17.80;56.62;99238.63;4492486;31;20139;-74
2022/06/15 04:53:12;;;;;;;4.78;1.30;;;;;;;17.84;55.24;99239.94;4493144;31;20104;-74
2022/06/15 04:55:40;;;;;;;3.42;1.12;;;;;;;17.94;54.96;99238.94;4494488;31;20099;-74
2022/06/15 04:58:07;;;;;;;4.57;1.30;;;;;;;17.99;53.70;99241.91;4500985;31;20152;-74
2022/06/15 05:00:39;;;;;;;8.23;1.92;;;;;;;18.07;53.36;99242.66;4497327;31;20084;-73
2022/06/15 05:03:07;;;;;;;6.62;1.35;;;;;;;18.14;53.07;99250.78;4479532;31;20161;-74
2022/06/15 05:05:35;;;;;;;2.75;1.80;;;;;;;18.36;54.71;99243.00;4480221;32;20489;-74
2022/06/15 05:08:03;;;;;;;3.30;1.50;;;;;;;18.63;51.75;99245.13;4478989;31;20443;-74
2022/06/15 05:10:31;;;;;;;11.20;1.62;;;;;;;18.71;49.95;99246.06;4480664;32;20172;-74
2022/06/15 05:12:59;;;;;;;5.00;1.12;;;;;;;18.60;49.58;99247.31;4482515;31;20204;-74
2022/06/15 05:15:26;;;;;;;7.87;1.48;;;;;;;18.92;50.34;99258.72;4480662;31;20758;-74
2022/06/15 05:17:54;;;;;;;1.77;0.98;;;;;;;19.03;48.67;99254.78;4483545;31;20131;-74
2022/06/15 05:20:22;;;;;;;5.00;1.05;;;;;;;18.80;48.79;99256.47;4487604;31;20123;-74
2022/06/15 05:22:53;;;;;;;7.95;1.50;;;;;;;18.73;49.82;99247.56;4483638;31;20208;-74
2022/06/15 05:25:21;;;;;;;6.37;1.25;;;;;;;19.16;50.04;99252.34;4483983;32;20123;-74
2022/06/15 05:27:49;;;;;;;8.35;1.42;;;;;;;19.24;49.83;99257.59;4490766;31;20407;-74
2022/06/15 05:30:16;;;;;;;7.70;1.75;;;;;;;19.11;47.87;99252.09;4488241;31;20160;-74
2022/06/15 05:32:44;;;;;;;4.97;1.35;;;;;;;19.40;47.69;99251.28;4479971;31;20151;-74
2022/06/15 05:35:15;;;;;;;4.93;1.42;;;;;;;19.35;47.68;99258.12;4479451;31;20092;-74
2022/06/15 05:37:42;;;;;;;3.50;1.52;;;;;;;19.37;46.87;99261.47;4475850;32;20127;-74
2022/06/15 05:40:11;;;;;;;3.58;1.33;;;;;;;19.53;49.52;99258.62;4482073;31;20443;-74
2022/06/15 05:42:40;;;;;;;3.62;1.33;;;;;;;19.49;47.50;99263.47;4480499;31;20104;-74
2022/06/15 05:45:07;;;;;;;6.55;1.25;;;;;;;19.82;47.21;99264.97;4481116;31;20108;-74
2022/06/15 05:47:35;;;;;;;4.43;1.15;;;;;;;19.61;45.45;99261.19;4479963;31;20465;-74
2022/06/15 05:50:07;;;;;;;5.28;1.40;;;;;;;19.45;46.14;99262.19;4481047;31;20374;-74
2022/06/15 05:52:39;;;;;;;7.95;1.50;;;;;;;19.72;47.64;99265.22;4482461;31;20163;-74
2022/06/15 05:55:07;;;;;;;3.87;1.20;;;;;;;19.79;46.70;99263.50;4471414;31;20163;-74
2022/06/15 05:57:35;;;;;;;4.55;2.15;;;;;;;19.57;46.17;99262.56;4474737;32;20148;-74
2022/06/15 06:00:04;;;;;;;4.22;1.62;;;;;;;19.48;46.83;99266.31;4476768;31;20459;-73
2022/06/15 06:02:40;;;;;;;21.40;2.65;;;;;;;19.47;45.72;99273.47;4476706;31;20184;-74
2022/06/15 06:05:08;;;;;;;5.65;1.50;;;;;;;19.53;46.35;99271.91;4482536;31;20092;-74
2022/06/15 06:07:35;;;;;;;4.60;1.30;;;;;;;19.54;46.33;99273.53;4482302;31;21037;-74
2022/06/15 06:10:03;;;;;;;11.63;1.52;;;;;;;19.45;45.70;99269.34;4475637;31;20116;-74
2022/06/15 06:12:31;;;;;;;13.93;1.73;;;;;;;19.45;47.18;99277.31;4473470;32;20107;-74
2022/06/15 06:14:58;;;;;;;15.23;2.03;;;;;;;19.57;47.20;99283.81;4476989;31;20397;-74
2022/06/15 06:17:25;;;;;;;5.80;1.30;;;;;;;19.88;45.71;99280.19;4480064;32;20220;-74
2022/06/15 06:19:52;;;;;;;3.05;1.37;;;;;;;19.80;44.92;99283.78;4475136;31;20123;-74
2022/06/15 06:22:19;;;;;;;10.35;2.20;;;;;;;19.95;45.61;99273.09;4476769;31;20123;-74
2022/06/15 06:24:48;;;;;;;2.65;1.60;;;;;;;20.15;45.64;99280.50;4472294;31;20160;-74
2022/06/15 06:27:16;;;;;;;3.35;1.40;;;;;;;20.14;44.12;99274.38;4479944;32;20088;-73
2022/06/15 06:29:44;;;;;;;4.70;2.85;;;;;;;20.09;44.53;99281.25;4484077;31;20104;-74
2022/06/15 06:32:13;;;;;;;13.10;1.90;;;;;;;20.06;45.26;99278.97;4478632;31;20095;-74
2022/06/15 06:34:41;;;;;;;2.42;1.45;;;;;;;20.27;45.43;99279.00;4481890;32;20160;-74
2022/06/15 06:37:11;;;;;;;4.00;1.48;;;;;;;20.13;43.62;99287.84;4484091;32;20162;-73
2022/06/15 06:39:38;;;;;;;11.12;1.75;;;;;;;20.20;44.58;99278.13;4479197;32;20096;-73
2022/06/15 06:42:06;;;;;;;3.25;1.55;;;;;;;20.21;43.78;99279.75;4474109;32;20119;-73
2022/06/15 06:44:34;;;;;;;2.67;1.27;;;;;;;20.45;44.78;99289.22;4478541;31;20174;-74
2022/06/15 06:47:01;;;;;;;3.22;1.35;;;;;;;20.48;43.89;99296.03;4475603;32;20189;-73
2022/06/15 06:49:29;;;;;;;3.20;1.37;;;;;;;20.51;42.38;99290.31;4483102;31;20177;-74
2022/06/15 06:51:57;;;;;;;3.47;1.37;;;;;;;20.56;43.11;99290.59;4486857;31;22115;-74
2022/06/15 06:54:24;;;;;;;6.00;2.10;;;;;;;20.59;43.68;99292.87;4483144;31;20126;-73
2022/06/15 06:56:52;;;;;;;3.62;1.48;;;;;;;20.74;45.44;99287.50;4479673;31;20091;-74
2022/06/15 06:59:27;;;;;;;2.08;1.40;;;;;;;20.78;44.72;99287.97;4484169;31;20112;-74
2022/06/15 07:02:14;;;;;;;4.60;1.75;;;;;;;20.82;42.10;99291.91;4482911;31;20576;-73
2022/06/15 07:04:41;;;;;;;3.12;1.60;;;;;;;20.95;42.53;99286.66;4476471;31;20101;-73
2022/06/15 07:07:09;;;;;;;6.87;2.10;;;;;;;21.07;43.22;99297.63;4475878;31;20093;-74
2022/06/15 07:09:37;;;;;;;2.95;1.60;;;;;;;21.25;42.94;99297.97;4475699;31;20167;-72
2022/06/15 07:12:05;;;;;;;3.17;1.90;;;;;;;21.21;45.50;99293.22;4480371;32;20100;-73
2022/06/15 07:14:32;;;;;;;3.72;1.90;;;;;;;21.20;42.97;99297.75;4476746;32;20481;-73
2022/06/15 07:17:00;;;;;;;2.28;1.48;;;;;;;21.22;42.82;99293.03;4475683;31;20092;-72
2022/06/15 07:19:27;;;;;;;4.10;1.85;;;;;;;21.18;43.34;99302.44;4477342;31;20119;-74
2022/06/15 07:21:54;;;;;;;8.00;2.30;;;;;;;21.41;42.98;99302.19;4480288;32;20169;-74
2022/06/15 07:24:21;;;;;;;4.28;1.60;;;;;;;21.41;42.61;99296.88;4474771;31;20144;-72
2022/06/15 07:26:48;;;;;;;3.75;1.75;;;;;;;21.44;42.32;99299.16;4478689;32;20097;-74
2022/06/15 07:29:20;;;;;;;2.95;1.75;;;;;;;21.45;42.27;99300.81;4483761;31;20108;-74
2022/06/15 07:31:51;;;;;;;2.53;1.33;;;;;;;21.46;44.43;99298.94;4476671;31;20122;-73
2022/06/15 07:34:20;;;;;;;6.93;1.90;;;;;;;21.31;44.25;99293.72;4480803;32;20099;-75
2022/06/15 07:36:48;;;;;;;3.03;1.45;;;;;;;21.45;42.90;99298.13;4483293;31;20115;-74
2022/06/15 07:39:20;;;;;;;2.33;1.50;;;;;;;21.78;46.33;99292.19;4484849;32;20088;-75
2022/06/15 07:41:49;;;;;;;5.37;1.73;;;;;;;21.86;44.77;99298.38;4483191;31;20582;-74
2022/06/15 07:44:17;;;;;;;5.50;1.33;;;;;;;22.00;43.64;99297.44;4475443;32;20555;-75
2022/06/15 07:46:46;;;;;;;2.85;1.60;;;;;;;21.60;39.73;99291.87;4475730;32;20100;-73
2022/06/15 07:52:02;;;;;;;4.20;1.60;;;;;;;21.72;42.79;99298.31;4479482;31;20476;-74
2022/06/15 07:54:30;;;;;;;1.83;1.42;;;;;;;21.95;42.26;99303.38;4472466;31;20469;-74
2022/06/15 07:56:57;;;;;;;3.35;1.70;;;;;;;21.71;40.12;99296.69;4473192;32;20622;-72
2022/06/15 07:59:24;;;;;;;4.05;1.70;;;;;;;21.73;41.90;99289.31;4482278;31;20453;-73
2022/06/15 08:01:52;;;;;;;8.70;1.98;;;;;;;21.86;40.68;99293.06;4479152;31;20160;-74
2022/06/15 08:04:20;;;;;;;5.53;1.90;;;;;;;22.12;42.48;99290.50;4480504;31;20148;-73
2022/06/15 08:06:48;;;;;;;2.33;1.33;;;;;;;22.38;40.33;99290.81;4481767;32;20175;-74
2022/06/15 08:09:16;;;;;;;10.45;1.87;;;;;;;22.01;40.36;99293.75;4484389;31;20609;-74
2022/06/15 08:12:11;;;;;;;5.22;1.60;;;;;;;21.51;39.89;99290.41;4479837;31;20155;-73
2022/06/15 08:14:34;;;;;;;6.70;1.80;;;;;;;21.87;40.63;99295.53;4478330;32;20108;-73
2022/06/15 08:17:03;;;;;;;5.28;1.80;;;;;;;22.36;42.02;99287.53;4477021;32;20144;-73
2022/06/15 08:19:33;;;;;;;6.30;2.30;;;;;;;22.63;40.43;99285.75;4471479;32;20420;-73
2022/06/15 08:22:01;;;;;;;18.10;2.92;;;;;;;22.83;41.33;99281.28;4480724;32;20108;-73
2022/06/15 08:24:28;;;;;;;3.40;1.60;;;;;;;23.16;40.15;99285.81;4483335;32;20097;-73
2022/06/15 08:26:56;;;;;;;3.70;1.48;;;;;;;22.99;38.71;99279.22;4474237;31;20092;-73
2022/06/15 08:29:23;;;;;;;3.15;1.70;;;;;;;23.18;41.28;99283.75;4471432;31;20383;-73
2022/06/15 08:31:55;;;;;;;8.20;2.20;;;;;;;23.26;37.79;99290.75;4482842;31;20738;-73
2022/06/15 08:34:27;;;;;;;5.87;1.73;;;;;;;22.69;38.99;99276.91;4477999;31;20147;-72
2022/06/15 08:36:56;;;;;;;5.03;1.40;;;;;;;22.43;39.23;99283.84;4478386;31;20103;-72
2022/06/15 08:39:23;;;;;;;21.67;3.22;;;;;;;22.58;38.04;99286.34;4484457;31;20103;-72
2022/06/15 08:42:03;;;;;;;2.17;1.58;;;;;;;22.20;39.56;99283.38;4479212;31;20101;-72
2022/06/15 08:44:48;;;;;;;4.03;1.60;;;;;;;22.49;40.17;99282.22;4473618;32;20194;-72
2022/06/15 08:47:31;;;;;;;1.95;1.50;;;;;;;22.50;37.36;99275.88;4474636;32;20122;-74
2022/06/15 08:50:06;;;;;;;2.75;1.52;;;;;;;22.56;37.24;99276.91;4478765;32;20165;-73
2022/06/15 08:52:41;;;;;;;5.07;1.75;;;;;;;22.28;37.85;99273.31;4478000;32;20145;-72
2022/06/15 08:55:15;;;;;;;3.53;1.55;;;;;;;22.28;37.96;99275.97;4491893;31;20146;-72
2022/06/15 08:57:54;;;;;;;3.47;1.50;;;;;;;22.18;37.09;99275.56;4476628;32;20083;-74
2022/06/15 09:00:28;;;;;;;2.30;1.45;;;;;;;22.31;36.84;99278.28;4474126;32;20097;-75
2022/06/15 09:03:21;;;;;;;1.90;1.40;;;;;;;22.63;36.86;99275.06;4475515;31;20137;-76
2022/06/15 09:06:07;;;;;;;2.20;1.42;;;;;;;22.36;37.67;99280.34;4476472;31;20139;-74
2022/06/15 09:08:51;;;;;;;2.75;1.33;;;;;;;22.61;36.99;99277.13;4477126;31;20118;-74
2022/06/15 09:11:19;;;;;;;2.15;1.40;;;;;;;22.61;38.38;99275.28;4474610;32;20219;-74
2022/06/15 09:14:01;;;;;;;2.72;1.90;;;;;;;22.75;36.70;99277.97;4475174;32;20151;-74
2022/06/15 09:17:02;;;;;;;5.20;1.70;;;;;;;22.56;37.18;99282.22;4471306;32;117309;-74
2022/06/15 09:19:34;;;;;;;6.55;1.35;;;;;;;22.85;35.92;99270.37;4473593;32;20134;-74
2022/06/15 09:22:08;;;;;;;2.22;1.50;;;;;;;22.80;36.01;99273.66;4474618;32;20104;-73
2022/06/15 09:24:47;;;;;;;1.80;1.50;;;;;;;22.43;37.60;99277.72;4474678;32;20162;-74
2022/06/15 09:27:23;;;;;;;2.97;1.30;;;;;;;22.62;38.03;99270.75;4474348;32;20125;-74
2022/06/15 09:30:03;;;;;;;4.80;1.37;;;;;;;22.83;37.41;99262.56;4478997;31;20088;-75
2022/06/15 09:32:35;;;;;;;3.15;1.25;;;;;;;23.06;37.66;99273.84;4477797;32;20138;-74
2022/06/15 09:35:08;;;;;;;2.00;1.55;;;;;;;23.19;37.97;99260.53;4472518;32;20123;-74
2022/06/15 09:37:44;;;;;;;1.42;1.20;;;;;;;23.24;35.21;99267.91;4473543;32;20092;-74
2022/06/15 09:40:12;;;;;;;2.50;1.30;;;;;;;23.07;35.81;99262.97;4475472;31;20160;-74
2022/06/15 09:43:03;;;;;;;2.15;1.08;;;;;;;23.01;36.07;99269.97;4473887;32;20123;-74
2022/06/15 09:45:32;;;;;;;3.55;1.20;;;;;;;23.34;36.10;99261.09;4466794;32;20139;-75
2022/06/15 09:48:06;;;;;;;5.25;1.30;;;;;;;23.33;36.84;99264.84;4478933;32;20114;-75
2022/06/15 09:50:45;;;;;;;3.53;1.37;;;;;;;22.89;36.36;99268.91;4476087;32;20080;-74
2022/06/15 09:53:28;;;;;;;2.85;1.30;;;;;;;23.20;37.39;99257.62;4476455;32;20236;-73
2022/06/15 09:56:07;;;;;;;2.58;1.30;;;;;;;23.50;37.15;99257.19;4475942;32;20145;-74
2022/06/15 09:58:55;;;;;;;3.10;1.42;;;;;;;23.89;35.38;99259.97;4471581;32;20126;-74
2022/06/15 10:01:30;;;;;;;3.90;1.50;;;;;;;24.10;36.61;99258.84;4475941;32;20088;-73
2022/06/15 10:04:00;;;;;;;1.98;1.40;;;;;;;23.80;35.65;99256.69;4477137;32;20107;-74
2022/06/15 10:06:34;;;;;;;3.17;1.67;;;;;;;23.95;38.26;99256.44;4475542;32;20100;-76
2022/06/15 10:09:06;;;;;;;3.15;1.55;;;;;;;24.41;39.49;99246.53;4471614;32;20171;-75
2022/06/15 10:11:41;;;;;;;2.22;1.65;;;;;;;24.85;39.96;99247.50;4473641;32;20153;-74
2022/06/15 10:14:23;;;;;;;2.85;1.58;;;;;;;25.01;38.69;99247.97;4470042;32;20363;-76
2022/06/15 10:17:30;;;;;;;4.07;1.80;;;;;;;25.21;38.06;99235.22;4480898;32;20405;-76
2022/06/15 10:19:58;;;;;;;2.53;1.50;;;;;;;25.53;39.77;99240.50;4481598;32;20127;-75
2022/06/15 10:22:38;;;;;;;6.37;1.60;;;;;;;25.52;38.25;99238.03;4476170;31;20118;-74
2022/06/15 10:25:06;;;;;;;7.03;1.83;;;;;;;25.65;36.54;99241.38;4475262;32;20116;-75
2022/06/15 10:27:36;;;;;;;17.62;2.55;;;;;;;25.66;38.83;99237.66;4483223;31;20096;-74
2022/06/15 10:30:06;;;;;;;9.65;1.67;;;;;;;25.40;34.65;99232.56;4483445;31;20470;-74
2022/06/15 10:32:40;;;;;;;2.95;1.70;;;;;;;25.32;34.83;99231.00;4482690;32;20165;-75
2022/06/15 10:35:08;;;;;;;2.72;1.70;;;;;;;25.12;34.56;99229.31;4480263;32;20112;-75
2022/06/15 10:37:47;;;;;;;1.67;1.20;;;;;;;25.02;35.33;99229.00;4482718;31;20175;-75
2022/06/15 10:40:20;;;;;;;5.75;1.90;;;;;;;24.98;34.44;99225.94;4477916;32;20120;-74
2022/06/15 10:42:54;;;;;;;3.90;1.90;;;;;;;25.24;35.58;99226.72;4479803;31;20617;-75
2022/06/15 10:45:42;;;;;;;7.22;1.62;;;;;;;25.12;34.04;99215.91;4475319;32;20173;-73
2022/06/15 10:48:16;;;;;;;3.62;1.60;;;;;;;24.26;35.19;99218.19;4480217;32;20087;-75
2022/06/15 10:51:09;;;;;;;9.63;1.87;;;;;;;24.02;35.51;99222.44;4481425;32;20088;-73
2022/06/15 10:53:42;;;;;;;2.30;1.35;;;;;;;24.03;35.85;99223.28;4476057;32;20212;-73
2022/06/15 11:02:30;;;;;;;2.05;1.33;;;;;;;24.71;39.97;99214.63;4489071;31;20152;-73
2022/06/15 11:05:13;;;;;;;4.53;1.42;;;;;;;25.42;38.19;99217.06;4485658;31;20159;-72
2022/06/15 11:07:48;;;;;;;3.15;1.50;;;;;;;25.52;37.30;99209.31;4480253;31;20162;-72
2022/06/15 11:10:34;;;;;;;2.12;1.27;;;;;;;25.70;38.51;99215.75;4481299;31;20429;-72
2022/06/15 11:13:19;;;;;;;2.78;1.20;;;;;;;25.59;33.29;99203.91;4477722;31;20155;-71
2022/06/15 11:18:40;;;;;;;14.90;2.08;;;;;;;25.06;35.72;99202.56;4478842;31;20438;-73
2022/06/15 11:21:16;;;;;;;4.12;1.50;;;;;;;24.95;36.60;99199.56;4477362;31;20111;-74
2022/06/15 11:23:55;;;;;;;3.75;1.83;;;;;;;25.35;39.01;99203.75;4479592;32;20118;-72
2022/06/15 11:26:52;;;;;;;3.72;1.50;;;;;;;25.39;37.91;99196.06;4478419;31;20147;-72
2022/06/15 11:29:59;;;;;;;2.78;1.30;;;;;;;25.41;35.78;99185.94;4478892;32;20132;-73
2022/06/15 11:32:48;;;;;;;5.85;1.62;;;;;;;25.00;35.21;99188.19;4432790;32;20109;-74
2022/06/15 11:35:51;;;;;;;4.45;1.52;;;;;;;24.54;36.10;99182.19;4432144;32;20089;-74
2022/06/15 11:38:37;;;;;;;3.12;1.30;;;;;;;25.09;35.45;99188.72;4431808;32;20124;-74
2022/06/15 11:41:08;;;;;;;1.95;1.10;;;;;;;24.76;34.67;99187.97;4431478;32;20475;-74
2022/06/15 11:43:42;;;;;;;1.95;1.40;;;;;;;24.73;35.37;99184.94;4431087;32;20190;-73
2022/06/15 11:46:21;;;;;;;2.50;1.42;;;;;;;24.84;35.45;99178.03;4433616;32;20145;-74
2022/06/15 11:48:58;;;;;;;2.50;1.35;;;;;;;24.99;34.36;99175.81;4428568;32;20151;-74
2022/06/15 11:51:51;;;;;;;7.40;1.70;;;;;;;24.57;34.18;99179.06;4412900;32;20102;-73
2022/06/15 11:54:30;;;;;;;2.78;1.35;;;;;;;25.05;35.81;99182.16;4426435;32;20248;-72
2022/06/15 11:57:18;;;;;;;4.20;1.20;;;;;;;25.44;35.07;99177.44;4419091;32;20200;-73
2022/06/15 11:59:57;;;;;;;3.12;1.65;;;;;;;25.44;34.15;99174.78;4431496;32;20203;-73
2022/06/15 12:02:35;;;;;;;1.58;1.08;;;;;;;25.32;34.54;99172.81;4432724;32;20705;-74
2022/06/15 12:05:33;;;;;;;1.58;1.02;;;;;;;25.45;33.14;99173.72;4415912;32;20170;-75
2022/06/15 12:08:28;;;;;;;2.62;1.00;;;;;;;25.79;32.68;99171.44;4453312;32;20397;-74
2022/06/15 12:14:14;;;;;;;1.45;1.20;;;;;;;25.53;33.41;99167.22;4470066;32;20093;-74
2022/06/15 12:16:50;;;;;;;2.42;1.30;;;;;;;25.66;33.91;99159.84;4475771;32;20149;-75
2022/06/15 12:19:30;;;;;;;2.55;1.30;;;;;;;25.97;33.65;99157.97;4484088;32;20397;-73
2022/06/15 12:22:17;;;;;;;1.48;1.17;;;;;;;25.82;33.01;99163.75;4484014;31;20092;-74